createdAt,value
2022-11-01T00:01:36.976Z,1006.68
2022-11-01T00:07:57.004Z,1006.61
2022-11-01T00:14:19.988Z,1006.43
2022-11-01T00:20:40.012Z,1006.19
2022-11-01T00:27:03.002Z,1006.04
2022-11-01T00:33:23.023Z,1006.04
2022-11-01T00:39:45.970Z,1006.02
2022-11-01T00:46:05.981Z,1005.86
2022-11-01T00:52:29.037Z,1005.74
2022-11-01T00:58:48.999Z,1005.86
2022-11-01T01:05:11.975Z,1006.08
2022-11-01T01:11:32.002Z,1006.14
2022-11-01T01:17:54.983Z,1006.27
2022-11-01T01:24:14.971Z,1006.27
2022-11-01T01:30:38.001Z,1006.12
2022-11-01T01:36:57.978Z,1006.04
2022-11-01T01:43:20.986Z,1005.92
2022-11-01T01:49:42.522Z,1005.8
2022-11-01T01:56:03.977Z,1005.82
2022-11-01T02:02:24.060Z,1005.8
2022-11-01T02:08:46.996Z,1005.78
2022-11-01T02:15:06.988Z,1005.8
2022-11-01T02:21:30.977Z,1005.86
2022-11-01T02:27:51.011Z,1005.96
2022-11-01T02:34:13.980Z,1006.02
2022-11-01T02:40:33.984Z,1006
2022-11-01T02:46:57.010Z,1005.96
2022-11-01T02:53:16.970Z,1006.02
2022-11-01T02:59:39.981Z,1006.04
2022-11-01T03:06:00.002Z,1006.1
2022-11-01T03:12:23.084Z,1006.18
2022-11-01T03:18:42.980Z,1006.23
2022-11-01T03:25:06.008Z,1006.33
2022-11-01T03:31:25.965Z,1006.35
2022-11-01T03:37:48.976Z,1006.33
2022-11-01T04:00:15.983Z,1006.45
2022-11-01T04:06:39.011Z,1006.51
2022-11-01T04:12:59.214Z,1006.59
2022-11-01T04:19:21.996Z,1006.57
2022-11-01T04:25:41.972Z,1006.66
2022-11-01T04:32:05.007Z,1006.8
2022-11-01T04:38:25.056Z,1006.82
2022-11-01T04:44:47.972Z,1006.84
2022-11-01T04:51:07.969Z,1006.94
2022-11-01T04:57:31.004Z,1007.02
2022-11-01T05:03:50.986Z,1007.1
2022-11-01T05:10:13.998Z,1007.19
2022-11-01T05:16:34.022Z,1007.23
2022-11-01T05:22:56.967Z,1007.27
2022-11-01T05:29:24.644Z,1007.33
2022-11-01T05:35:40.003Z,1007.31
2022-11-01T05:42:01.719Z,1007.37
2022-11-01T05:48:22.971Z,1007.47
2022-11-01T05:54:43.012Z,1007.52
2022-11-01T06:01:06.070Z,1007.6
2022-11-01T06:07:25.978Z,1007.7
2022-11-01T06:13:49.014Z,1007.84
2022-11-01T06:20:08.980Z,1007.92
2022-11-01T06:26:31.979Z,1008.06
2022-11-01T06:32:52.006Z,1008.14
2022-11-01T06:39:14.983Z,1008.3
2022-11-01T06:45:34.993Z,1008.45
2022-11-01T06:51:58.000Z,1008.61
2022-11-01T06:58:17.984Z,1008.75
2022-11-01T07:04:40.998Z,1008.86
2022-11-01T07:11:01.010Z,1008.98
2022-11-01T07:17:23.990Z,1009.16
2022-11-01T07:23:44.020Z,1009.35
2022-11-01T07:30:07.017Z,1009.47
2022-11-01T07:36:26.999Z,1009.65
2022-11-01T07:42:50.013Z,1009.82
2022-11-01T07:49:10.008Z,1009.92
2022-11-01T07:55:33.349Z,1010.08
2022-11-01T08:01:53.110Z,1010.2
2022-11-01T08:08:16.141Z,1010.25
2022-11-01T08:14:35.980Z,1010.29
2022-11-01T08:20:59.020Z,1010.33
2022-11-01T08:27:19.015Z,1010.41
2022-11-01T08:33:42.015Z,1010.63
2022-11-01T08:40:01.989Z,1010.81
2022-11-01T08:46:25.023Z,1010.89
2022-11-01T08:52:45.054Z,1010.97
2022-11-01T08:59:07.986Z,1011.01
2022-11-01T09:05:28.000Z,1011.09
2022-11-01T09:27:40.001Z,1011.34
2022-11-01T09:34:03.006Z,1011.38
2022-11-01T09:40:22.998Z,1011.4
2022-11-01T09:46:46.010Z,1011.44
2022-11-01T09:53:06.030Z,1011.49
2022-11-01T09:59:28.986Z,1011.53
2022-11-01T10:05:49.027Z,1011.51
2022-11-01T10:12:11.987Z,1011.51
2022-11-01T10:18:31.993Z,1011.57
2022-11-01T10:24:55.025Z,1011.67
2022-11-01T10:31:14.982Z,1011.71
2022-11-01T10:37:39.041Z,1011.73
2022-11-01T10:43:58.042Z,1011.77
2022-11-01T10:50:20.985Z,1011.77
2022-11-01T10:56:41.006Z,1011.75
2022-11-01T11:03:04.004Z,1011.69
2022-11-01T11:09:23.989Z,1011.73
2022-11-01T11:15:46.994Z,1011.69
2022-11-01T11:22:07.013Z,1011.69
2022-11-01T11:28:30.045Z,1011.65
2022-11-01T11:34:49.997Z,1011.71
2022-11-01T11:41:13.004Z,1011.71
2022-11-01T11:47:32.988Z,1011.71
2022-11-01T11:53:55.985Z,1011.69
2022-11-01T12:00:16.102Z,1011.67
2022-11-01T12:06:38.990Z,1011.73
2022-11-01T12:12:59.075Z,1011.77
2022-11-01T12:19:22.131Z,1011.75
2022-11-01T12:25:42.104Z,1011.75
2022-11-01T12:32:04.986Z,1011.67
2022-11-01T12:38:25.004Z,1011.63
2022-11-01T12:44:47.983Z,1011.63
2022-11-01T12:51:07.990Z,1011.63
2022-11-01T12:57:31.009Z,1011.67
2022-11-01T13:03:51.023Z,1011.63
2022-11-01T13:10:13.988Z,1011.61
2022-11-01T13:16:34.002Z,1011.57
2022-11-01T13:22:56.998Z,1011.53
2022-11-01T13:29:16.977Z,1011.57
2022-11-01T13:35:40.054Z,1011.59
2022-11-01T13:41:59.974Z,1011.57
2022-11-01T13:48:22.974Z,1011.53
2022-11-01T13:54:43.008Z,1011.57
2022-11-01T14:01:06.049Z,1011.57
2022-11-01T14:07:25.985Z,1011.53
2022-11-01T14:13:49.012Z,1011.59
2022-11-01T14:20:09.021Z,1011.65
2022-11-01T14:26:31.989Z,1011.71
2022-11-01T14:32:52.036Z,1011.73
2022-11-01T14:39:14.991Z,1011.77
2022-11-01T15:03:38.008Z,1011.89
2022-11-01T15:10:00.977Z,1011.95
2022-11-01T15:16:21.003Z,1012
2022-11-01T15:22:44.004Z,1012.02
2022-11-01T15:29:03.988Z,1012.04
2022-11-01T15:35:26.988Z,1012.04
2022-11-01T15:41:47.040Z,1012.1
2022-11-01T15:48:09.988Z,1012.14
2022-11-01T15:54:32.103Z,1012.24
2022-11-01T16:00:53.049Z,1012.26
2022-11-01T16:07:12.978Z,1012.24
2022-11-01T16:13:35.983Z,1012.24
2022-11-01T16:19:56.012Z,1012.22
2022-11-01T16:26:18.975Z,1012.24
2022-11-01T16:32:39.129Z,1012.3
2022-11-01T16:39:02.215Z,1012.32
2022-11-01T16:45:22.209Z,1012.34
2022-11-01T16:51:44.977Z,1012.4
2022-11-01T16:58:05.365Z,1012.49
2022-11-01T17:04:28.058Z,1012.55
2022-11-01T17:10:47.964Z,1012.61
2022-11-01T17:17:11.015Z,1012.69
2022-11-01T17:23:30.973Z,1012.67
2022-11-01T17:29:54.010Z,1012.71
2022-11-01T17:36:13.994Z,1012.73
2022-11-01T17:42:36.980Z,1012.83
2022-11-01T17:48:57.007Z,1012.89
2022-11-01T17:55:20.003Z,1012.94
2022-11-01T18:01:40.050Z,1012.98
2022-11-01T18:08:03.218Z,1013
2022-11-01T18:14:22.994Z,1013
2022-11-01T18:20:45.996Z,1013.02
2022-11-01T18:27:05.991Z,1013.02
2022-11-01T18:33:29.043Z,1013
2022-11-01T18:39:48.976Z,1012.94
2022-11-01T18:46:24.287Z,1012.96
2022-11-01T18:52:32.013Z,1012.92
2022-11-01T18:58:54.972Z,1012.94
2022-11-01T19:05:14.989Z,1013.02
2022-11-01T19:11:38.001Z,1013
2022-11-01T19:17:57.969Z,1012.96
2022-11-01T19:24:21.007Z,1012.92
2022-11-01T19:30:40.985Z,1012.92
2022-11-01T19:37:03.991Z,1012.89
2022-11-01T19:43:23.980Z,1012.83
2022-11-01T19:49:47.023Z,1012.83
2022-11-01T19:56:06.996Z,1012.85
2022-11-01T20:02:30.079Z,1012.89
2022-11-01T20:08:50.040Z,1012.87
2022-11-01T20:26:01.496Z,1012.89
2022-11-01T20:32:20.978Z,1012.87
2022-11-01T20:38:43.981Z,1012.89
2022-11-01T20:45:05.135Z,1012.85
2022-11-01T20:51:27.972Z,1012.87
2022-11-01T20:57:48.011Z,1012.92
2022-11-01T21:04:11.001Z,1013
2022-11-01T21:10:30.977Z,1012.98
2022-11-01T21:16:54.019Z,1012.96
2022-11-01T21:23:14.035Z,1012.92
2022-11-01T21:29:36.995Z,1012.89
2022-11-01T21:35:56.963Z,1012.87
2022-11-01T21:42:20.014Z,1012.87
2022-11-01T21:48:39.976Z,1012.87
2022-11-01T21:55:02.972Z,1012.85
2022-11-01T22:01:23.061Z,1012.83
2022-11-01T22:07:45.983Z,1012.81
2022-11-01T22:14:05.999Z,1012.81
2022-11-01T22:20:28.992Z,1012.79
2022-11-01T22:26:48.972Z,1012.81
2022-11-01T22:33:12.035Z,1012.73
2022-11-01T22:39:32.019Z,1012.59
2022-11-01T22:45:54.980Z,1012.51
2022-11-01T22:52:14.990Z,1012.55
2022-11-01T22:58:38.007Z,1012.53
2022-11-01T23:21:35.996Z,1012.51
2022-11-01T23:27:55.981Z,1012.45
2022-11-01T23:34:18.991Z,1012.43
2022-11-01T23:40:38.989Z,1012.4
2022-11-01T23:47:01.988Z,1012.4
2022-11-01T23:53:21.974Z,1012.32
2022-11-01T23:59:45.008Z,1012.22
